• Join FlightAware (Why Join?)
  • Login
  • US Flag 
12:28AM EST


 

Airport Tracker/Info


-or-


 

Live Flight TrackerFlight Track Log ✈ EJA929 ✈ 12-Jul-2013 ✈ KMIA - KAPF

Flight Track Log - Related Links

Times and Time Zones

All times are in EDT time to prevent confusion due to time zone crossing. See the EJA929 flight status page for this flight to view local times or setup timezone preferences in your user account.

Time Position Orientation Groundspeed Altitude Reporting Facility
EDT Latitude Longitude Course Direction KTS MPH feet Rate Location/Type
03:41PM 25.8017 -80.3069 287° West 186 214 900  Level Miami Center
03:42PM 25.8169 -80.3628 287° West 219 252 5,200 3,495 Climbing Miami Center
03:42PM 25.8386 -80.4211 292° West 257 296 6,900 1,778 Climbing Miami Center
03:43PM 25.9022 -80.4667 327° Northwest 286 329 8,400 1,550 Climbing Miami Center
03:44PM 25.9722 -80.5106 331° Northwest 328 377 10,000 750 Climbing Miami Center
03:45PM 26.0414 -80.5819 317° Northwest 372 428 9,900 -50 Descending Miami Center
03:46PM 26.1125 -80.6514 319° Northwest 386 444 9,900 50 Level Miami Center
03:47PM 26.1900 -80.7300 318° Northwest 386 444 10,000 50 Climbing Miami Center
03:48PM 26.2689 -80.8208 314° West 376 433 10,000  Level Miami Center
03:49PM 26.3419 -80.9042 314° West 371 427 10,000  Level Miami Center
03:50PM 26.3511 -81.0206 275° West 360 414 10,000  Level Miami Center
03:51PM 26.3542 -81.1342 272° West 366 421 10,000 -200 Level Miami Center
03:52PM 26.3511 -81.2314 268° West 343 395 9,600 -750 Descending Miami Center
03:53PM 26.3508 -81.3100 270° West 284 327 8,500 -1,850 Descending Miami Center
03:54PM 26.3483 -81.3933 268° West 268 308 5,900 -2,550 Descending Miami Center
03:55PM 26.3458 -81.4767 268° West 268 308 3,400 -1,450 Descending Miami Center
03:56PM 26.3475 -81.5556 271° West 268 308 3,000 -450 Descending Miami Center
03:57PM 26.3181 -81.6217 244° Southwest 246 283 2,500 -450 Descending Miami Center
03:58PM 26.2689 -81.6567 213° Southwest 230 265 2,100 -200 Descending Miami Center
03:59PM 26.2258 -81.6989 221° Southwest 216 249 2,100 -500 Level Miami Center
04:00PM 26.1869 -81.7392 223° Southwest 204 235 1,100 -1,000 Descending Miami Center
04:02PM 26.1500 -81.7667 241° Southwest  Level FlightAware Approximate
04:09PM 26.1524 -81.7756 241° Southwest  Level Estimated